This is the latest recevied weather packets stored in our database for station/object K4HOG. If no packets are shown the sender has not sent any weather packets the latest 1 day(s).
| Time | Temp. | Humidity | Pressure | Rain* | Wind** | Luminosity | Snow |
|---|---|---|---|---|---|---|---|
| 1778029691 | 22.78° C | 67% | 1015.6 hPa | 0 mm | - | 0 W/m² | - |
| 1778029389 | 23.33° C | 66% | 1015.4 hPa | 0 mm | - | 0 W/m² | - |
| 1778029086 | 23.33° C | 65% | 1015.6 hPa | 0 mm | - | 0 W/m² | - |
| 1778028782 | 23.33° C | 65% | 1015.3 hPa | 0 mm | - | 0 W/m² | - |
| 1778028478 | 23.33° C | 64% | 1015.5 hPa | 0 mm | - | 0 W/m² | - |
| 1778027872 | 23.89° C | 63% | 1014.9 hPa | 0 mm | - | 0 W/m² | - |
| 1778027265 | 24.44° C | 62% | 1015 hPa | 0 mm | - | 0 W/m² | - |
| 1778026961 | 25° C | 61% | 1014.7 hPa | 0 mm | - | 0 W/m² | - |
| 1778026355 | 25.56° C | 59% | 1014.6 hPa | 0 mm | - | 1 W/m² | - |
| 1778026051 | 26.11° C | 57% | 1014.6 hPa | 0 mm | - | 2 W/m² | - |
| 1778024538 | 26.67° C | 55% | 1014.1 hPa | 0 mm | - | 27 W/m² | - |
| 1778024234 | 26.11° C | 55% | 1014 hPa | 0 mm | - | 27 W/m² | - |
| 1778023932 | 26.11° C | 55% | 1013.8 hPa | 0 mm | - | 30 W/m² | - |
| 1778022420 | 27.78° C | 52% | 1013.8 hPa | 0 mm | - | 55 W/m² | - |
| 1778021509 | 28.89° C | 46% | 1013.8 hPa | 0 mm | - | 69 W/m² | - |
| 1778021205 | 28.89° C | 44% | 1013.7 hPa | 0 mm | - | 76 W/m² | - |
| 1778020601 | 29.44° C | 48% | 1013.8 hPa | 0 mm | - | 132 W/m² | - |
| 1778019386 | 30.56° C | 40% | 1013.8 hPa | 0 mm | - | 168 W/m² | - |
| 1778018780 | 31.11° C | 42% | 1013.7 hPa | 0 mm | - | 213 W/m² | - |
| 1778017571 | 31.11° C | 39% | 1014 hPa | 0 mm | - | 317 W/m² | - |
| 1778016662 | 31.67° C | 37% | 1014 hPa | 0 mm | - | 376 W/m² | - |
| 1778015752 | 31.11° C | 36% | 1014 hPa | 0 mm | - | 430 W/m² | - |
| 1778015449 | 31.67° C | 36% | 1013.7 hPa | 0 mm | - | 450 W/m² | - |
| 1778014536 | 31.11° C | 35% | 1013.7 hPa | 0 mm | - | 451 W/m² | - |
| 1778013324 | 31.67° C | 37% | 1014.2 hPa | 0 mm | - | 568 W/m² | - |
* Rain latest hour (hover to see other rain measurements)
** Current wind speed in m/s (hover to see current wind gust speed)